Milford, Utah Weather observations

Data are for observation ending at time listed.
 Day   Time    Ave.   Ave.  Ave.  Vector   Max.   Stn.    Total    Solar   Ave.  
  of    of     Air    Rel.  Wind   Wind    Wind   Baro.  Precip.   Rad.    Soil  
Year   Day     Temp.  Hum.  Speed  Dir.    Gust   Pres.                    Temp. 
2015   (MST)    F      %     mph   deg.    mph     mb.     in.     W/m2     F   
------------------------------------------------------------------------------
  63    0:00   16.6    90    0.0    63      0.7   841.5    0.00       0    99999.0
  63    0:10   16.4    91    0.0     0      0.0   841.4    0.00       0    99999.0
  63    0:20   17.2    91    0.2   295      0.9   841.4    0.00       0    99999.0
  63    0:30   17.2    90    0.3    64      1.5   841.5    0.00       0    99999.0
  63    0:40   16.7    90    0.3    50      1.8   841.5    0.00       0    99999.0
  63    0:50   16.6    90    0.5    28      2.3   841.5    0.00       0    99999.0
  63    1:00   16.6    90    0.9    39      2.2   841.5    0.00       0    99999.0
  63    1:10   16.0    90    1.1    39      2.0   841.5    0.00       0    99999.0
  63    1:20   15.5    90    1.4    30      2.0   841.6    0.00       0    99999.0
  63    1:30   14.9    90    0.7    42      2.0   841.7    0.00       0    99999.0
  63    1:40   15.0    90    0.6    38      1.7   841.7    0.00       0    99999.0
  63    1:50   14.3    90    1.1    62      2.1   841.7    0.00       0    99999.0
  63    2:00   13.0    90    1.4    24      2.3   841.8    0.00       0    99999.0
  63    2:10   12.8    90    0.1    26      0.9   841.8    0.00       0    99999.0
  63    2:20   13.1    89    1.0    44      2.6   841.8    0.00       0    99999.0
  63    2:30   12.7    89    1.1    21      2.0   841.8    0.00       0    99999.0
  63    2:40   12.6    89    0.4   321      1.8   841.8    0.00       0    99999.0
  63    2:50   15.0    89    1.0   340      2.3   841.8    0.00       0    99999.0
  63    3:00   13.7    88    0.5    15      1.8   841.8    0.00       0    99999.0
  63    3:10   14.0    88    0.0    42      0.7   841.8    0.00       0    99999.0
  63    3:20   13.7    88    0.0     0      0.0   841.8    0.00       0    99999.0
  63    3:30   13.7    88    0.3    48      1.8   841.9    0.00       0    99999.0
  63    3:40   13.0    88    0.4    70      1.5   841.9    0.00       0    99999.0
  63    3:50   12.1    88    0.0    58      0.4   841.9    0.00       0    99999.0
  63    4:00   11.5    88    0.8   173      1.8   841.9    0.00       0    99999.0
  63    4:10   10.5    88    1.1   186      2.0   841.9    0.00       0    99999.0
  63    4:20   10.1    88    0.0     0      0.0   842.0    0.00       0    99999.0
  63    4:30   10.3    88    0.0   212      0.4   842.0    0.00       0    99999.0
  63    4:40   10.9    88    0.0     0      0.0   842.1    0.00       0    99999.0
  63    4:50   11.3    88    0.1    36      1.6   842.1    0.00       0    99999.0
  63    5:00   11.5    88    0.5    38      1.5   842.1    0.00       0    99999.0
  63    5:10   11.4    88    0.0     0      0.0   842.3    0.00       0    99999.0
  63    5:20   11.4    88    0.0   347      0.1   842.4    0.00       0    99999.0
  63    5:30   11.5    88    0.3    28      1.2   842.4    0.00       0    99999.0
  63    5:40   11.6    88    0.1     2      0.7   842.5    0.00       0    99999.0
  63    5:50   11.7    88    1.2    19      2.2   842.6    0.00       0    99999.0
  63    6:00   11.2    88    1.4    14      2.2   842.7    0.00       0    99999.0
  63    6:10   11.0    88    0.3     2      1.1   842.9    0.00       0    99999.0
  63    6:20   11.2    88    0.4    13      1.2   843.1    0.00       0    99999.0
  63    6:30   11.2    88    0.5    18      2.1   843.2    0.00       0    99999.0
  63    6:40   10.8    88    1.8    32      2.4   843.3    0.00       0    99999.0
  63    6:50   10.4    88    0.3     5      1.0   843.4    0.00       0    99999.0
  63    7:00   10.7    88    0.4     2      1.6   843.6    0.00       3    99999.0
  63    7:10   10.8    87    0.0   336      0.7   843.6    0.00       5    99999.0
  63    7:20   11.1    87    0.3    10      1.2   843.7    0.00      10    99999.0
  63    7:30   11.3    87    0.0    16      0.5   843.9    0.00      21    99999.0
  63    7:40   11.1    87    0.3   167      1.6   844.0    0.00      58    99999.0
  63    7:50   13.1    87    0.0     0      0.0   844.2    0.00      95    99999.0
  63    8:00   15.4    85    0.6    80      1.7   844.4    0.00     133    99999.0
  63    8:10   16.0    83    0.3    76      1.5   844.7    0.00     171    99999.0
  63    8:20   16.9    81    0.5    72      1.7   845.0    0.00     201    99999.0
  63    8:30   18.7    78    0.3   125      1.8   845.3    0.00     226    99999.0
  63    8:40   18.4    76    0.9   154      1.8   845.6    0.00     246    99999.0
  63    8:50   18.4    75    1.2   156      2.2   845.9    0.00     272    99999.0
  63    9:00   17.6    75    2.4   152      3.3   846.2    0.00     299    99999.0
  63    9:10   18.5    76    2.4   152      3.3   846.5    0.00     324    99999.0
  63    9:20   19.4    76    2.3   142      3.4   846.7    0.00     347    99999.0
  63    9:30   20.2    76    2.1   145      3.1   847.0    0.00     370    99999.0
  63    9:40   21.5    76    1.4   144      2.6   847.2    0.00     405    99999.0
  63    9:50   24.1    74    0.6   110      1.4   847.4    0.00     442    99999.0
  63   10:00   27.1    70    0.7    70      3.2   847.7    0.04     466    99999.0
  63   10:10   26.6    69    2.2    59      4.4   848.0    0.03     492    99999.0
  63   10:20   26.6    72    3.2    46      5.1   848.2    0.02     516    51.0
  63   10:30   27.2    73    3.7    39      5.9   848.3    0.00     536    52.7
  63   10:40   28.2    72    2.6    47      5.4   848.5    0.00     556    49.7
  63   10:50   29.4    71    3.3    48      5.6   848.5    0.00     575    49.4
  63   11:00   30.0    71    3.8    36      5.9   848.7    0.00     591    50.3
  63   11:10   30.4    72    4.8    40      9.1   848.7    0.00     607    51.0
  63   11:20   31.2    71    5.2    28      9.2   848.7    0.00     619    49.6
  63   11:30   33.9   99999    4.7     0      8.1  99999.0    0.00     606    99999.0
  63   11:40   33.1    66    6.5    18     11.4   849.0    0.00     639    38.5
  63   11:50   34.2    64    5.4    13     11.9   849.0    0.00     647    39.8
  63   12:00   34.4    61    7.7    19     13.1   849.1    0.00     656    41.1
  63   12:10   35.0    59    6.6    14     13.3   849.2    0.00     662    36.7
  63   12:20   35.3    53    7.9    17     15.6   849.2    0.00     671    40.3
  63   12:30   35.4    52    7.7    21     13.2   849.3    0.00     681    38.3
  63   12:40   35.5    49    6.8    26     11.0   849.4    0.00     680    40.1
  63   12:50   36.0    47    8.2    21     14.2   849.4    0.00     674    41.8
  63   13:00   36.2    47    7.9    22     14.5   849.4    0.00     673    40.1
  63   13:10   36.5    48    6.7    18     14.1   849.5    0.00     639    38.2
  63   13:20   36.5    48    6.8    20     12.9   849.6    0.00     672    40.7
  63   13:30   36.8    47    6.7    23     12.9   849.6    0.00     687    38.4
  63   13:40   36.7    46    7.2    33     12.4   849.6    0.00     697    36.7
  63   13:50   36.4    47    8.0    28     14.5   849.5    0.00     538    39.2
  63   14:00   36.0    47    7.8    47     12.4   849.4    0.00     642    39.3
  63   14:10   36.8    47    7.2    42     14.2   849.4    0.00     635    39.1
  63   14:20   36.4    47    7.1    43     13.7   849.4    0.00     642    39.7
  63   14:30   37.3    47    6.9    42     12.7   849.5    0.00     610    38.3
  63   14:40   37.2    47    6.3    30     11.1   849.5    0.00     544    40.4
  63   14:50   37.5    47    6.7    32     11.5   849.6    0.00     518    38.7
  63   15:00   37.4    46    7.8    33     13.7   849.6    0.00     540    41.0
  63   15:10   37.3    45    6.8    38     11.0   849.6    0.00     517    38.8
  63   15:20   37.7    44    6.4    43     12.4   849.7    0.00     496    39.1
  63   15:30   38.0    43    8.0    40     13.4   849.7    0.00     476    38.9
  63   15:40   38.0    43    8.0    43     12.7   849.7    0.00     449    38.9
  63   15:50   38.3    41    8.0    28     13.3   849.7    0.00     426    38.6
  63   16:00   38.4    41    8.6    29     18.3   849.8    0.00     394    39.5
  63   16:10   38.7    41    7.2    29     11.9   849.9    0.00     375    39.9
  63   16:20   38.3    41    7.7    32     15.2   849.8    0.00     350    38.9
  63   16:30   38.1    42    7.8    24     13.6   849.8    0.00     209    38.5
  63   16:40   37.7    44    7.8    22     13.9   849.7    0.00     114    39.7
  63   16:50   37.9    43    6.6    30     10.7   849.5    0.00      72    40.2
  63   17:00   37.7    43    8.1    33     12.9   849.5    0.00      53    39.1
  63   17:10   37.6    43    7.3    32     11.8   849.5    0.00      94    39.5
  63   17:20   37.7    43    7.0    31     11.5   849.6    0.00     146    39.2
  63   17:30   37.4    44    7.4    40     12.1   849.7    0.00     129    39.6
  63   17:40   36.9    44    6.8    33     11.9   849.7    0.00      22    39.4
  63   17:50   36.9    45    5.7    38      9.4   849.7    0.00      19    39.4
  63   18:00   36.6    46    5.9    39     10.7   849.7    0.00      16    39.3
  63   18:10   36.1    48    4.8    37      8.8   849.8    0.00      12    40.7
  63   18:20   35.1    51    3.4    42      5.5   849.9    0.00       9    38.6
  63   18:30   34.5    52    3.3    27      6.1   849.9    0.00       6    39.5
  63   18:40   33.9    55    2.6    43      4.4   849.9    0.00       1    39.7
  63   18:50   33.1    57    2.3    31      3.7   850.0    0.00       1    39.8
  63   19:00   32.3    58    2.0    26      3.6   850.0    0.00       1    41.0
  63   19:10   31.5    60    1.7    22      2.7   850.1    0.00       0    38.5
  63   19:20   30.7    61    0.7    12      2.7   850.1    0.00       0    39.7
  63   19:30   30.5    62    1.3    24      3.4   850.2    0.00       0    39.8
  63   19:40   30.3    62    0.7     3      2.6   850.2    0.00       0    40.4
  63   19:50   30.1    61    0.6    34      2.4   850.3    0.00       0    37.4
  63   20:00   29.8    61    0.9     8      2.2   850.3    0.00       0    38.7
  63   20:10   29.7    61    2.2    26      4.8   850.3    0.00       0    38.9
  63   20:20   29.7    60    1.7   339      4.3   850.4    0.00       0    39.8
  63   20:30   28.8    64    1.2   322      2.6   850.5    0.00       0    39.8
  63   20:40   27.9    64    0.4   333      1.8   850.5    0.00       0    40.0
  63   20:50   27.3    64    0.1   349      1.2   850.6    0.00       0    39.5
  63   21:00   27.6    64    0.6   333      2.6   850.7    0.00       0    40.3
  63   21:10   28.4    64    1.3   336      3.2   850.8    0.00       0    39.2
  63   21:20   28.5    66    0.7    26      1.5   850.9    0.00       0    40.1
  63   21:30   28.3    68    0.6     8      2.9   850.9    0.00       0    40.4
  63   21:40   27.9    70    0.0     0      0.0   851.0    0.00       0    39.6
  63   21:50   27.5    71    0.1   339      1.2   851.1    0.00       0    39.8
  63   22:00   27.3    73    1.2    60      4.7   851.2    0.00       0    39.9
  63   22:10   26.7    73    0.9    31      3.6   851.3    0.00       0    39.3
  63   22:20   26.4    74    0.2     6      0.9   851.4    0.00       0    40.4
  63   22:30   26.4    75    0.6     9      2.1   851.4    0.00       0    39.9
  63   22:40   26.1    75    0.8    13      3.1   851.5    0.00       1    39.8
  63   22:50   25.8    74    1.2    16      2.3   851.6    0.00       1    39.8
  63   23:00   25.3    74    1.6    20      3.4   851.6    0.00       0    39.2
  63   23:10   24.4    73    1.2    35      2.8   851.6    0.00       0    37.9
  63   23:20   23.8    72    0.0     0      0.0   851.7    0.00       0    39.3
  63   23:30   23.6    72    0.0     0      0.0   851.7    0.00       0    39.6
  63   23:40   23.5    73    0.3   202      1.2   851.7    0.00       0    39.9
  63   23:50   23.3    74    0.0     0      0.0   851.7    0.00       0    39.8

Return to Milford, Utah graphs page.


Western Regional Climate Center,wrcc@dri.edu